sensor_id;sensor_type;location;lat;lon;timestamp;temperature;humidity
19862;DHT22;10093;48.148;8.542;2023-05-07T00:00:00;9.40;99.90
19862;DHT22;10093;48.148;8.542;2023-05-07T00:02:25;9.40;99.90
19862;DHT22;10093;48.148;8.542;2023-05-07T00:04:51;9.40;99.90
19862;DHT22;10093;48.148;8.542;2023-05-07T00:07:18;9.40;99.90
19862;DHT22;10093;48.148;8.542;2023-05-07T00:09:43;9.30;99.90
19862;DHT22;10093;48.148;8.542;2023-05-07T00:12:09;9.50;99.90
19862;DHT22;10093;48.148;8.542;2023-05-07T00:14:35;9.40;99.90
19862;DHT22;10093;48.148;8.542;2023-05-07T00:17:00;9.30;99.90
19862;DHT22;10093;48.148;8.542;2023-05-07T00:19:26;9.30;99.90
19862;DHT22;10093;48.148;8.542;2023-05-07T00:21:52;9.40;99.90
19862;DHT22;10093;48.148;8.542;2023-05-07T00:24:19;9.20;99.90
19862;DHT22;10093;48.148;8.542;2023-05-07T00:26:45;9.20;99.90
19862;DHT22;10093;48.148;8.542;2023-05-07T00:29:10;9.30;99.90
19862;DHT22;10093;48.148;8.542;2023-05-07T00:31:36;9.10;99.90
19862;DHT22;10093;48.148;8.542;2023-05-07T00:34:02;9.00;99.90
19862;DHT22;10093;48.148;8.542;2023-05-07T00:36:27;9.00;99.90
19862;DHT22;10093;48.148;8.542;2023-05-07T00:38:54;9.00;99.90
19862;DHT22;10093;48.148;8.542;2023-05-07T00:41:20;9.00;99.90
19862;DHT22;10093;48.148;8.542;2023-05-07T00:43:46;8.90;99.90
19862;DHT22;10093;48.148;8.542;2023-05-07T00:46:13;8.90;99.90
19862;DHT22;10093;48.148;8.542;2023-05-07T00:48:39;9.00;99.90
19862;DHT22;10093;48.148;8.542;2023-05-07T00:51:05;9.00;99.90
19862;DHT22;10093;48.148;8.542;2023-05-07T00:53:31;8.80;99.90
19862;DHT22;10093;48.148;8.542;2023-05-07T00:55:57;8.70;99.90
19862;DHT22;10093;48.148;8.542;2023-05-07T00:58:23;8.70;99.90
19862;DHT22;10093;48.148;8.542;2023-05-07T01:00:49;8.60;99.90
19862;DHT22;10093;48.148;8.542;2023-05-07T01:03:15;8.60;99.90
19862;DHT22;10093;48.148;8.542;2023-05-07T01:05:43;8.70;99.90
19862;DHT22;10093;48.148;8.542;2023-05-07T01:08:10;8.80;99.90
19862;DHT22;10093;48.148;8.542;2023-05-07T01:10:37;8.60;99.90
19862;DHT22;10093;48.148;8.542;2023-05-07T01:13:02;8.60;99.90
19862;DHT22;10093;48.148;8.542;2023-05-07T01:15:28;8.70;99.90
19862;DHT22;10093;48.148;8.542;2023-05-07T01:17:55;8.70;99.90
19862;DHT22;10093;48.148;8.542;2023-05-07T01:20:22;8.80;99.90
19862;DHT22;10093;48.148;8.542;2023-05-07T01:22:48;8.70;99.90
19862;DHT22;10093;48.148;8.542;2023-05-07T01:25:14;8.80;99.90
19862;DHT22;10093;48.148;8.542;2023-05-07T01:27:41;8.70;99.90
19862;DHT22;10093;48.148;8.542;2023-05-07T01:30:08;8.70;99.90
19862;DHT22;10093;48.148;8.542;2023-05-07T01:35:18;8.50;99.90
19862;DHT22;10093;48.148;8.542;2023-05-07T01:37:44;8.60;99.90
19862;DHT22;10093;48.148;8.542;2023-05-07T01:40:11;8.50;99.90
19862;DHT22;10093;48.148;8.542;2023-05-07T01:42:37;8.40;99.90
19862;DHT22;10093;48.148;8.542;2023-05-07T01:45:02;8.40;99.90
19862;DHT22;10093;48.148;8.542;2023-05-07T01:47:29;8.40;99.90
19862;DHT22;10093;48.148;8.542;2023-05-07T01:49:55;8.30;99.90
19862;DHT22;10093;48.148;8.542;2023-05-07T01:52:21;8.20;99.90
19862;DHT22;10093;48.148;8.542;2023-05-07T01:54:46;8.30;99.90
19862;DHT22;10093;48.148;8.542;2023-05-07T01:57:12;8.60;99.90
19862;DHT22;10093;48.148;8.542;2023-05-07T01:59:38;8.70;99.90
19862;DHT22;10093;48.148;8.542;2023-05-07T02:02:03;8.80;99.90
19862;DHT22;10093;48.148;8.542;2023-05-07T02:04:29;8.80;99.90
19862;DHT22;10093;48.148;8.542;2023-05-07T02:06:55;8.90;99.90
19862;DHT22;10093;48.148;8.542;2023-05-07T02:09:21;8.80;99.90
19862;DHT22;10093;48.148;8.542;2023-05-07T02:11:47;8.80;99.90
19862;DHT22;10093;48.148;8.542;2023-05-07T02:14:13;8.60;99.90
19862;DHT22;10093;48.148;8.542;2023-05-07T02:16:38;8.40;99.90
19862;DHT22;10093;48.148;8.542;2023-05-07T02:19:04;8.30;99.90
19862;DHT22;10093;48.148;8.542;2023-05-07T02:21:30;8.30;99.90
19862;DHT22;10093;48.148;8.542;2023-05-07T02:23:56;8.20;99.90
19862;DHT22;10093;48.148;8.542;2023-05-07T02:26:21;8.00;99.90
19862;DHT22;10093;48.148;8.542;2023-05-07T02:28:47;7.90;99.90
19862;DHT22;10093;48.148;8.542;2023-05-07T02:31:12;7.80;99.90
19862;DHT22;10093;48.148;8.542;2023-05-07T02:33:38;7.80;99.90
19862;DHT22;10093;48.148;8.542;2023-05-07T02:36:10;7.70;99.90
19862;DHT22;10093;48.148;8.542;2023-05-07T02:38:37;7.90;99.90
19862;DHT22;10093;48.148;8.542;2023-05-07T02:41:02;7.70;99.90
19862;DHT22;10093;48.148;8.542;2023-05-07T02:43:28;7.60;99.90
19862;DHT22;10093;48.148;8.542;2023-05-07T02:46:08;7.50;99.90
19862;DHT22;10093;48.148;8.542;2023-05-07T02:48:34;7.70;99.90
19862;DHT22;10093;48.148;8.542;2023-05-07T02:51:00;8.00;99.90
19862;DHT22;10093;48.148;8.542;2023-05-07T02:53:26;7.80;99.90
19862;DHT22;10093;48.148;8.542;2023-05-07T02:55:53;7.70;99.90
19862;DHT22;10093;48.148;8.542;2023-05-07T02:58:19;7.50;99.90
19862;DHT22;10093;48.148;8.542;2023-05-07T03:00:45;7.40;99.90
19862;DHT22;10093;48.148;8.542;2023-05-07T03:03:10;7.30;99.90
19862;DHT22;10093;48.148;8.542;2023-05-07T03:05:36;7.30;99.90
19862;DHT22;10093;48.148;8.542;2023-05-07T03:08:02;7.30;99.90
19862;DHT22;10093;48.148;8.542;2023-05-07T03:10:29;7.30;99.90
19862;DHT22;10093;48.148;8.542;2023-05-07T03:12:55;7.30;99.90
19862;DHT22;10093;48.148;8.542;2023-05-07T03:15:20;7.40;99.90
19862;DHT22;10093;48.148;8.542;2023-05-07T03:17:47;7.50;99.90
19862;DHT22;10093;48.148;8.542;2023-05-07T03:20:13;7.50;99.90
19862;DHT22;10093;48.148;8.542;2023-05-07T03:22:39;7.30;99.90
19862;DHT22;10093;48.148;8.542;2023-05-07T03:25:05;7.30;99.90
19862;DHT22;10093;48.148;8.542;2023-05-07T03:27:31;7.40;99.90
19862;DHT22;10093;48.148;8.542;2023-05-07T03:29:56;7.20;99.90
19862;DHT22;10093;48.148;8.542;2023-05-07T03:32:22;7.10;99.90
19862;DHT22;10093;48.148;8.542;2023-05-07T03:34:47;7.00;99.90
19862;DHT22;10093;48.148;8.542;2023-05-07T03:37:13;7.10;99.90
19862;DHT22;10093;48.148;8.542;2023-05-07T03:39:39;7.20;99.90
19862;DHT22;10093;48.148;8.542;2023-05-07T03:42:04;7.10;99.90
19862;DHT22;10093;48.148;8.542;2023-05-07T03:44:39;7.00;99.90
19862;DHT22;10093;48.148;8.542;2023-05-07T03:47:05;7.00;99.90
19862;DHT22;10093;48.148;8.542;2023-05-07T03:49:30;6.90;99.90
19862;DHT22;10093;48.148;8.542;2023-05-07T03:51:56;7.10;99.90
19862;DHT22;10093;48.148;8.542;2023-05-07T03:54:22;7.40;99.90
19862;DHT22;10093;48.148;8.542;2023-05-07T03:56:48;7.50;99.90
19862;DHT22;10093;48.148;8.542;2023-05-07T03:59:13;7.30;99.90
19862;DHT22;10093;48.148;8.542;2023-05-07T04:01:39;7.10;99.90
19862;DHT22;10093;48.148;8.542;2023-05-07T04:04:05;7.00;99.90
19862;DHT22;10093;48.148;8.542;2023-05-07T04:06:31;7.00;99.90
19862;DHT22;10093;48.148;8.542;2023-05-07T04:08:57;7.30;99.90
19862;DHT22;10093;48.148;8.542;2023-05-07T04:11:23;7.40;99.90
19862;DHT22;10093;48.148;8.542;2023-05-07T04:13:48;7.20;99.90
19862;DHT22;10093;48.148;8.542;2023-05-07T04:16:14;7.10;99.90
19862;DHT22;10093;48.148;8.542;2023-05-07T04:18:40;7.10;99.90
19862;DHT22;10093;48.148;8.542;2023-05-07T04:21:06;7.00;99.90
19862;DHT22;10093;48.148;8.542;2023-05-07T04:23:38;7.00;99.90
19862;DHT22;10093;48.148;8.542;2023-05-07T04:26:04;7.00;99.90
19862;DHT22;10093;48.148;8.542;2023-05-07T04:28:29;7.00;99.90
19862;DHT22;10093;48.148;8.542;2023-05-07T04:30:55;7.10;99.90
19862;DHT22;10093;48.148;8.542;2023-05-07T04:33:21;7.40;99.90
19862;DHT22;10093;48.148;8.542;2023-05-07T04:35:46;7.50;99.90
19862;DHT22;10093;48.148;8.542;2023-05-07T04:38:12;7.50;99.90
19862;DHT22;10093;48.148;8.542;2023-05-07T04:40:38;7.50;99.90
19862;DHT22;10093;48.148;8.542;2023-05-07T04:43:04;7.60;99.90
19862;DHT22;10093;48.148;8.542;2023-05-07T04:45:30;7.70;99.90
19862;DHT22;10093;48.148;8.542;2023-05-07T04:47:55;7.80;99.90
19862;DHT22;10093;48.148;8.542;2023-05-07T04:50:21;7.70;99.90
19862;DHT22;10093;48.148;8.542;2023-05-07T04:52:48;7.80;99.90
19862;DHT22;10093;48.148;8.542;2023-05-07T04:55:14;7.90;99.90
19862;DHT22;10093;48.148;8.542;2023-05-07T04:57:40;8.10;99.90
19862;DHT22;10093;48.148;8.542;2023-05-07T05:00:07;8.00;99.90
19862;DHT22;10093;48.148;8.542;2023-05-07T05:02:34;8.20;99.90
19862;DHT22;10093;48.148;8.542;2023-05-07T05:05:01;8.40;99.90
19862;DHT22;10093;48.148;8.542;2023-05-07T05:07:27;9.20;99.90
19862;DHT22;10093;48.148;8.542;2023-05-07T05:09:54;9.80;99.90
19862;DHT22;10093;48.148;8.542;2023-05-07T05:12:20;10.40;99.90
19862;DHT22;10093;48.148;8.542;2023-05-07T05:14:45;11.10;99.90
19862;DHT22;10093;48.148;8.542;2023-05-07T05:17:11;11.80;99.90
19862;DHT22;10093;48.148;8.542;2023-05-07T05:19:36;13.10;99.90
19862;DHT22;10093;48.148;8.542;2023-05-07T05:22:02;14.50;99.90
19862;DHT22;10093;48.148;8.542;2023-05-07T05:24:29;15.60;99.90
19862;DHT22;10093;48.148;8.542;2023-05-07T05:26:55;16.40;99.90
19862;DHT22;10093;48.148;8.542;2023-05-07T05:29:21;17.00;99.90
19862;DHT22;10093;48.148;8.542;2023-05-07T05:31:47;17.10;99.90
19862;DHT22;10093;48.148;8.542;2023-05-07T05:34:12;17.80;99.90
19862;DHT22;10093;48.148;8.542;2023-05-07T05:36:38;18.80;99.90
19862;DHT22;10093;48.148;8.542;2023-05-07T05:39:04;19.70;99.90
19862;DHT22;10093;48.148;8.542;2023-05-07T05:41:29;20.10;99.90
19862;DHT22;10093;48.148;8.542;2023-05-07T05:43:55;20.10;99.90
19862;DHT22;10093;48.148;8.542;2023-05-07T05:46:21;20.00;99.90
19862;DHT22;10093;48.148;8.542;2023-05-07T05:48:47;19.50;99.90
19862;DHT22;10093;48.148;8.542;2023-05-07T05:51:12;18.90;99.90
19862;DHT22;10093;48.148;8.542;2023-05-07T05:53:38;18.60;99.90
19862;DHT22;10093;48.148;8.542;2023-05-07T05:56:04;18.10;99.90
19862;DHT22;10093;48.148;8.542;2023-05-07T05:58:30;18.50;99.90
19862;DHT22;10093;48.148;8.542;2023-05-07T06:00:55;18.90;99.90
19862;DHT22;10093;48.148;8.542;2023-05-07T06:03:21;19.20;99.90
19862;DHT22;10093;48.148;8.542;2023-05-07T06:05:47;19.20;99.90
19862;DHT22;10093;48.148;8.542;2023-05-07T06:08:13;18.30;99.90
19862;DHT22;10093;48.148;8.542;2023-05-07T06:10:39;17.50;99.90
19862;DHT22;10093;48.148;8.542;2023-05-07T06:13:04;17.30;99.90
19862;DHT22;10093;48.148;8.542;2023-05-07T06:15:30;17.20;99.90
19862;DHT22;10093;48.148;8.542;2023-05-07T06:17:56;17.30;99.90
19862;DHT22;10093;48.148;8.542;2023-05-07T06:20:23;17.90;99.90
19862;DHT22;10093;48.148;8.542;2023-05-07T06:22:48;18.60;99.90
19862;DHT22;10093;48.148;8.542;2023-05-07T06:25:14;18.90;99.90
19862;DHT22;10093;48.148;8.542;2023-05-07T06:27:40;18.70;99.90
19862;DHT22;10093;48.148;8.542;2023-05-07T06:30:06;19.20;99.90
19862;DHT22;10093;48.148;8.542;2023-05-07T06:32:32;20.80;99.90
19862;DHT22;10093;48.148;8.542;2023-05-07T06:34:58;21.60;99.90
19862;DHT22;10093;48.148;8.542;2023-05-07T06:37:23;20.10;99.90
19862;DHT22;10093;48.148;8.542;2023-05-07T06:39:49;20.50;99.90
19862;DHT22;10093;48.148;8.542;2023-05-07T06:42:15;21.10;99.90
19862;DHT22;10093;48.148;8.542;2023-05-07T06:44:41;21.10;99.90
19862;DHT22;10093;48.148;8.542;2023-05-07T06:47:06;20.60;99.90
19862;DHT22;10093;48.148;8.542;2023-05-07T06:49:32;19.90;99.90
19862;DHT22;10093;48.148;8.542;2023-05-07T06:51:58;19.60;99.90
19862;DHT22;10093;48.148;8.542;2023-05-07T06:54:24;19.80;99.90
19862;DHT22;10093;48.148;8.542;2023-05-07T06:56:49;20.50;99.90
19862;DHT22;10093;48.148;8.542;2023-05-07T06:59:15;21.40;99.90
19862;DHT22;10093;48.148;8.542;2023-05-07T07:01:41;22.90;99.90
19862;DHT22;10093;48.148;8.542;2023-05-07T07:04:06;24.90;99.90
19862;DHT22;10093;48.148;8.542;2023-05-07T07:06:32;25.20;99.90
19862;DHT22;10093;48.148;8.542;2023-05-07T07:08:58;26.60;99.90
19862;DHT22;10093;48.148;8.542;2023-05-07T07:11:24;27.80;99.90
19862;DHT22;10093;48.148;8.542;2023-05-07T07:13:50;28.20;99.90
19862;DHT22;10093;48.148;8.542;2023-05-07T07:16:16;28.20;99.90
19862;DHT22;10093;48.148;8.542;2023-05-07T07:18:42;27.30;99.90
19862;DHT22;10093;48.148;8.542;2023-05-07T07:21:07;26.00;99.90
19862;DHT22;10093;48.148;8.542;2023-05-07T07:23:33;24.80;99.90
19862;DHT22;10093;48.148;8.542;2023-05-07T07:25:58;22.90;99.90
19862;DHT22;10093;48.148;8.542;2023-05-07T07:28:24;22.40;99.90
19862;DHT22;10093;48.148;8.542;2023-05-07T07:30:50;22.90;99.90
19862;DHT22;10093;48.148;8.542;2023-05-07T07:33:15;24.40;99.90
19862;DHT22;10093;48.148;8.542;2023-05-07T07:35:41;25.60;99.90
19862;DHT22;10093;48.148;8.542;2023-05-07T07:38:07;25.30;99.90
19862;DHT22;10093;48.148;8.542;2023-05-07T07:40:34;25.10;99.90
19862;DHT22;10093;48.148;8.542;2023-05-07T07:43:00;24.30;99.90
19862;DHT22;10093;48.148;8.542;2023-05-07T07:45:26;22.20;99.90
19862;DHT22;10093;48.148;8.542;2023-05-07T07:47:52;23.00;99.90
19862;DHT22;10093;48.148;8.542;2023-05-07T07:50:18;22.40;99.90
19862;DHT22;10093;48.148;8.542;2023-05-07T07:52:44;22.90;99.90
19862;DHT22;10093;48.148;8.542;2023-05-07T07:55:09;24.40;99.90
19862;DHT22;10093;48.148;8.542;2023-05-07T07:57:35;24.70;99.90
19862;DHT22;10093;48.148;8.542;2023-05-07T08:00:01;21.90;99.90
19862;DHT22;10093;48.148;8.542;2023-05-07T08:02:27;20.90;99.90
19862;DHT22;10093;48.148;8.542;2023-05-07T08:04:53;20.50;99.90
19862;DHT22;10093;48.148;8.542;2023-05-07T08:07:18;21.60;99.90
19862;DHT22;10093;48.148;8.542;2023-05-07T08:09:46;22.80;99.90
19862;DHT22;10093;48.148;8.542;2023-05-07T08:12:12;23.80;99.90
19862;DHT22;10093;48.148;8.542;2023-05-07T08:14:38;25.60;99.90
19862;DHT22;10093;48.148;8.542;2023-05-07T08:17:03;26.80;99.90
19862;DHT22;10093;48.148;8.542;2023-05-07T08:19:29;27.60;99.90
19862;DHT22;10093;48.148;8.542;2023-05-07T08:21:55;27.20;99.90
19862;DHT22;10093;48.148;8.542;2023-05-07T08:24:21;27.60;99.90
19862;DHT22;10093;48.148;8.542;2023-05-07T08:26:46;26.70;99.90
19862;DHT22;10093;48.148;8.542;2023-05-07T08:29:12;24.10;99.90
19862;DHT22;10093;48.148;8.542;2023-05-07T08:31:38;23.30;99.90
19862;DHT22;10093;48.148;8.542;2023-05-07T08:34:06;23.20;99.90
19862;DHT22;10093;48.148;8.542;2023-05-07T08:36:32;25.70;99.90
19862;DHT22;10093;48.148;8.542;2023-05-07T08:38:58;26.60;99.90
19862;DHT22;10093;48.148;8.542;2023-05-07T08:41:24;26.50;99.90
19862;DHT22;10093;48.148;8.542;2023-05-07T08:43:50;25.00;99.90
19862;DHT22;10093;48.148;8.542;2023-05-07T08:46:21;26.20;99.90
19862;DHT22;10093;48.148;8.542;2023-05-07T08:48:51;26.00;99.90
19862;DHT22;10093;48.148;8.542;2023-05-07T08:51:21;25.90;99.90
19862;DHT22;10093;48.148;8.542;2023-05-07T08:53:48;25.50;99.90
19862;DHT22;10093;48.148;8.542;2023-05-07T08:56:15;25.40;99.90
19862;DHT22;10093;48.148;8.542;2023-05-07T08:58:43;26.50;99.90
19862;DHT22;10093;48.148;8.542;2023-05-07T09:01:13;27.70;99.90
19862;DHT22;10093;48.148;8.542;2023-05-07T09:03:39;28.20;99.90
19862;DHT22;10093;48.148;8.542;2023-05-07T09:06:05;28.50;99.90
19862;DHT22;10093;48.148;8.542;2023-05-07T09:08:33;28.60;99.90
19862;DHT22;10093;48.148;8.542;2023-05-07T09:10:59;28.20;99.90
19862;DHT22;10093;48.148;8.542;2023-05-07T09:13:26;27.70;99.90
19862;DHT22;10093;48.148;8.542;2023-05-07T09:15:52;28.00;99.90
19862;DHT22;10093;48.148;8.542;2023-05-07T09:18:18;27.60;99.90
19862;DHT22;10093;48.148;8.542;2023-05-07T09:20:43;23.70;99.90
19862;DHT22;10093;48.148;8.542;2023-05-07T09:23:09;23.00;99.90
19862;DHT22;10093;48.148;8.542;2023-05-07T09:25:35;23.20;99.90
19862;DHT22;10093;48.148;8.542;2023-05-07T09:28:03;22.30;99.90
19862;DHT22;10093;48.148;8.542;2023-05-07T09:30:30;24.30;99.90
19862;DHT22;10093;48.148;8.542;2023-05-07T09:33:00;26.10;99.90
19862;DHT22;10093;48.148;8.542;2023-05-07T09:35:26;27.20;99.90
19862;DHT22;10093;48.148;8.542;2023-05-07T09:37:57;28.40;99.90
19862;DHT22;10093;48.148;8.542;2023-05-07T09:40:24;28.40;99.90
19862;DHT22;10093;48.148;8.542;2023-05-07T09:42:50;27.90;99.90
19862;DHT22;10093;48.148;8.542;2023-05-07T09:45:26;27.70;99.90
19862;DHT22;10093;48.148;8.542;2023-05-07T09:47:55;26.20;99.90
19862;DHT22;10093;48.148;8.542;2023-05-07T09:50:29;24.90;99.90
19862;DHT22;10093;48.148;8.542;2023-05-07T09:52:56;24.60;99.90
19862;DHT22;10093;48.148;8.542;2023-05-07T09:55:23;24.00;99.90
19862;DHT22;10093;48.148;8.542;2023-05-07T09:57:52;23.00;99.90
19862;DHT22;10093;48.148;8.542;2023-05-07T10:00:19;23.00;99.90
19862;DHT22;10093;48.148;8.542;2023-05-07T10:02:51;22.90;99.90
19862;DHT22;10093;48.148;8.542;2023-05-07T10:05:20;21.80;99.90
19862;DHT22;10093;48.148;8.542;2023-05-07T10:07:46;22.30;99.90
19862;DHT22;10093;48.148;8.542;2023-05-07T10:10:13;22.90;99.90
19862;DHT22;10093;48.148;8.542;2023-05-07T10:12:40;23.00;99.90
19862;DHT22;10093;48.148;8.542;2023-05-07T10:15:09;23.40;99.90
19862;DHT22;10093;48.148;8.542;2023-05-07T10:17:37;23.90;99.90
19862;DHT22;10093;48.148;8.542;2023-05-07T10:20:07;24.40;99.90
19862;DHT22;10093;48.148;8.542;2023-05-07T10:22:38;25.40;99.90
19862;DHT22;10093;48.148;8.542;2023-05-07T10:25:09;25.70;99.90
19862;DHT22;10093;48.148;8.542;2023-05-07T10:27:39;25.80;99.90
19862;DHT22;10093;48.148;8.542;2023-05-07T10:30:19;26.10;99.90
19862;DHT22;10093;48.148;8.542;2023-05-07T10:32:49;26.50;99.90
19862;DHT22;10093;48.148;8.542;2023-05-07T10:35:29;25.90;99.90
19862;DHT22;10093;48.148;8.542;2023-05-07T10:37:56;26.10;99.90
19862;DHT22;10093;48.148;8.542;2023-05-07T10:40:22;25.80;99.90
19862;DHT22;10093;48.148;8.542;2023-05-07T10:45:20;25.10;99.90
19862;DHT22;10093;48.148;8.542;2023-05-07T10:50:34;24.50;99.90
19862;DHT22;10093;48.148;8.542;2023-05-07T10:55:45;23.40;99.90
19862;DHT22;10093;48.148;8.542;2023-05-07T11:00:47;22.60;99.90
19862;DHT22;10093;48.148;8.542;2023-05-07T11:03:13;22.20;99.90
19862;DHT22;10093;48.148;8.542;2023-05-07T11:05:40;21.50;99.90
19862;DHT22;10093;48.148;8.542;2023-05-07T11:08:06;21.30;99.90
19862;DHT22;10093;48.148;8.542;2023-05-07T11:10:55;21.30;99.90
19862;DHT22;10093;48.148;8.542;2023-05-07T11:16:18;20.80;99.90
19862;DHT22;10093;48.148;8.542;2023-05-07T11:19:02;20.40;99.90
19862;DHT22;10093;48.148;8.542;2023-05-07T11:24:02;19.60;99.90
19862;DHT22;10093;48.148;8.542;2023-05-07T11:26:30;19.30;99.90
19862;DHT22;10093;48.148;8.542;2023-05-07T11:28:57;19.00;99.90
19862;DHT22;10093;48.148;8.542;2023-05-07T11:31:24;18.80;99.90
19862;DHT22;10093;48.148;8.542;2023-05-07T11:33:52;18.70;99.90
19862;DHT22;10093;48.148;8.542;2023-05-07T11:36:18;18.50;99.90
19862;DHT22;10093;48.148;8.542;2023-05-07T11:38:45;18.40;99.90
19862;DHT22;10093;48.148;8.542;2023-05-07T11:41:11;18.20;99.90
19862;DHT22;10093;48.148;8.542;2023-05-07T11:43:37;17.90;99.90
19862;DHT22;10093;48.148;8.542;2023-05-07T11:46:10;17.20;99.90
19862;DHT22;10093;48.148;8.542;2023-05-07T11:48:36;16.40;99.90
19862;DHT22;10093;48.148;8.542;2023-05-07T11:51:03;16.10;99.90
19862;DHT22;10093;48.148;8.542;2023-05-07T11:53:38;15.60;99.90
19862;DHT22;10093;48.148;8.542;2023-05-07T11:56:08;15.30;99.90
19862;DHT22;10093;48.148;8.542;2023-05-07T11:58:33;15.10;99.90
19862;DHT22;10093;48.148;8.542;2023-05-07T12:00:59;15.00;99.90
19862;DHT22;10093;48.148;8.542;2023-05-07T12:03:24;15.00;99.90
19862;DHT22;10093;48.148;8.542;2023-05-07T12:05:50;14.90;99.90
19862;DHT22;10093;48.148;8.542;2023-05-07T12:08:17;14.80;99.90
19862;DHT22;10093;48.148;8.542;2023-05-07T12:10:48;14.70;99.90
19862;DHT22;10093;48.148;8.542;2023-05-07T12:13:24;14.50;99.90
19862;DHT22;10093;48.148;8.542;2023-05-07T12:15:55;14.40;99.90
19862;DHT22;10093;48.148;8.542;2023-05-07T12:18:21;14.30;99.90
19862;DHT22;10093;48.148;8.542;2023-05-07T12:20:48;14.30;99.90
19862;DHT22;10093;48.148;8.542;2023-05-07T12:23:14;14.30;99.90
19862;DHT22;10093;48.148;8.542;2023-05-07T12:25:41;14.10;99.90
19862;DHT22;10093;48.148;8.542;2023-05-07T12:28:17;14.10;99.90
19862;DHT22;10093;48.148;8.542;2023-05-07T12:30:44;13.90;99.90
19862;DHT22;10093;48.148;8.542;2023-05-07T12:33:10;13.80;99.90
19862;DHT22;10093;48.148;8.542;2023-05-07T12:35:40;13.70;99.90
19862;DHT22;10093;48.148;8.542;2023-05-07T12:38:14;13.60;99.90
19862;DHT22;10093;48.148;8.542;2023-05-07T12:40:43;13.10;99.90
19862;DHT22;10093;48.148;8.542;2023-05-07T12:45:43;12.90;99.90
19862;DHT22;10093;48.148;8.542;2023-05-07T12:48:12;13.10;99.90
19862;DHT22;10093;48.148;8.542;2023-05-07T12:50:37;13.10;99.90
19862;DHT22;10093;48.148;8.542;2023-05-07T12:53:04;13.30;99.90
19862;DHT22;10093;48.148;8.542;2023-05-07T12:55:32;13.80;99.90
19862;DHT22;10093;48.148;8.542;2023-05-07T12:58:01;14.10;99.90
19862;DHT22;10093;48.148;8.542;2023-05-07T13:00:37;14.40;99.90
19862;DHT22;10093;48.148;8.542;2023-05-07T13:03:03;14.60;99.90
19862;DHT22;10093;48.148;8.542;2023-05-07T13:05:29;14.80;99.90
19862;DHT22;10093;48.148;8.542;2023-05-07T13:07:55;14.90;99.90
19862;DHT22;10093;48.148;8.542;2023-05-07T13:10:22;15.00;99.90
19862;DHT22;10093;48.148;8.542;2023-05-07T13:12:48;14.90;99.90
19862;DHT22;10093;48.148;8.542;2023-05-07T13:15:14;15.10;99.90
19862;DHT22;10093;48.148;8.542;2023-05-07T13:17:40;15.40;99.90
19862;DHT22;10093;48.148;8.542;2023-05-07T13:20:06;15.70;99.90
19862;DHT22;10093;48.148;8.542;2023-05-07T13:22:33;16.20;99.90
19862;DHT22;10093;48.148;8.542;2023-05-07T13:24:58;16.90;99.90
19862;DHT22;10093;48.148;8.542;2023-05-07T13:27:24;17.90;99.90
19862;DHT22;10093;48.148;8.542;2023-05-07T13:29:50;18.90;99.90
19862;DHT22;10093;48.148;8.542;2023-05-07T13:32:15;19.10;99.90
19862;DHT22;10093;48.148;8.542;2023-05-07T13:34:41;20.00;99.90
19862;DHT22;10093;48.148;8.542;2023-05-07T13:37:06;20.90;99.90
19862;DHT22;10093;48.148;8.542;2023-05-07T13:39:33;21.10;99.90
19862;DHT22;10093;48.148;8.542;2023-05-07T13:41:58;21.90;99.90
19862;DHT22;10093;48.148;8.542;2023-05-07T13:44:24;21.60;99.90
19862;DHT22;10093;48.148;8.542;2023-05-07T13:46:50;22.10;99.90
19862;DHT22;10093;48.148;8.542;2023-05-07T13:49:16;23.60;99.90
19862;DHT22;10093;48.148;8.542;2023-05-07T13:51:42;24.30;99.90
19862;DHT22;10093;48.148;8.542;2023-05-07T13:54:07;24.50;99.90
19862;DHT22;10093;48.148;8.542;2023-05-07T13:56:33;24.20;99.90
19862;DHT22;10093;48.148;8.542;2023-05-07T13:58:59;23.70;99.90
19862;DHT22;10093;48.148;8.542;2023-05-07T14:01:25;23.20;99.90
19862;DHT22;10093;48.148;8.542;2023-05-07T14:03:51;22.40;99.90
19862;DHT22;10093;48.148;8.542;2023-05-07T14:06:16;21.50;99.90
19862;DHT22;10093;48.148;8.542;2023-05-07T14:08:42;21.40;99.90
19862;DHT22;10093;48.148;8.542;2023-05-07T14:11:07;21.90;99.90
19862;DHT22;10093;48.148;8.542;2023-05-07T14:13:33;22.10;99.90
19862;DHT22;10093;48.148;8.542;2023-05-07T14:15:59;22.00;99.90
19862;DHT22;10093;48.148;8.542;2023-05-07T14:18:26;21.90;99.90
19862;DHT22;10093;48.148;8.542;2023-05-07T14:20:51;21.50;99.90
19862;DHT22;10093;48.148;8.542;2023-05-07T14:23:17;20.70;99.90
19862;DHT22;10093;48.148;8.542;2023-05-07T14:25:45;20.30;99.90
19862;DHT22;10093;48.148;8.542;2023-05-07T14:28:13;19.40;99.90
19862;DHT22;10093;48.148;8.542;2023-05-07T14:30:39;19.00;99.90
19862;DHT22;10093;48.148;8.542;2023-05-07T14:33:04;19.00;99.90
19862;DHT22;10093;48.148;8.542;2023-05-07T14:35:30;18.90;99.90
19862;DHT22;10093;48.148;8.542;2023-05-07T14:37:56;18.90;99.90
19862;DHT22;10093;48.148;8.542;2023-05-07T14:40:21;18.80;99.90
19862;DHT22;10093;48.148;8.542;2023-05-07T14:42:47;18.80;99.90
19862;DHT22;10093;48.148;8.542;2023-05-07T14:45:12;19.10;99.90
19862;DHT22;10093;48.148;8.542;2023-05-07T14:47:38;19.10;99.90
19862;DHT22;10093;48.148;8.542;2023-05-07T14:50:04;19.00;99.90
19862;DHT22;10093;48.148;8.542;2023-05-07T14:52:30;18.90;99.90
19862;DHT22;10093;48.148;8.542;2023-05-07T14:54:55;18.50;99.90
19862;DHT22;10093;48.148;8.542;2023-05-07T14:57:21;17.70;99.90
19862;DHT22;10093;48.148;8.542;2023-05-07T14:59:47;17.50;99.90
19862;DHT22;10093;48.148;8.542;2023-05-07T15:02:12;17.40;99.90
19862;DHT22;10093;48.148;8.542;2023-05-07T15:04:39;17.50;99.90
19862;DHT22;10093;48.148;8.542;2023-05-07T15:07:11;17.80;99.90
19862;DHT22;10093;48.148;8.542;2023-05-07T15:09:37;18.20;99.90
19862;DHT22;10093;48.148;8.542;2023-05-07T15:12:02;18.50;99.90
19862;DHT22;10093;48.148;8.542;2023-05-07T15:14:29;18.60;99.90
19862;DHT22;10093;48.148;8.542;2023-05-07T15:16:54;18.90;99.90
19862;DHT22;10093;48.148;8.542;2023-05-07T15:19:20;19.20;99.90
19862;DHT22;10093;48.148;8.542;2023-05-07T15:21:47;18.70;99.90
19862;DHT22;10093;48.148;8.542;2023-05-07T15:24:13;18.70;99.90
19862;DHT22;10093;48.148;8.542;2023-05-07T15:26:38;18.70;99.90
19862;DHT22;10093;48.148;8.542;2023-05-07T15:29:04;18.70;99.90
19862;DHT22;10093;48.148;8.542;2023-05-07T15:31:35;18.80;99.90
19862;DHT22;10093;48.148;8.542;2023-05-07T15:34:02;19.20;99.90
19862;DHT22;10093;48.148;8.542;2023-05-07T15:36:28;18.30;99.90
19862;DHT22;10093;48.148;8.542;2023-05-07T15:38:54;18.20;99.90
19862;DHT22;10093;48.148;8.542;2023-05-07T15:41:20;19.00;99.90
19862;DHT22;10093;48.148;8.542;2023-05-07T15:43:50;19.30;99.90
19862;DHT22;10093;48.148;8.542;2023-05-07T15:46:20;19.60;99.90
19862;DHT22;10093;48.148;8.542;2023-05-07T15:48:47;20.00;99.90
19862;DHT22;10093;48.148;8.542;2023-05-07T15:51:12;20.30;99.90